Terminal Aerodrome Forecast
Issued by NWS

Home | Current Version | Previous Version | Text Only | Print | Product List | Glossary On
Versions: 1 2 3 4 5 6 7 8 9 10 11 12 13 14
000
FTUS45 KRIW 211100
TAFRKS
TAF
KRKS 211126Z 2112/2212 08011KT P6SM SCT250
     FM211500 12008KT P6SM SCT120 BKN250
     FM211900 15010KT P6SM VCSH SCT100 BKN150
     FM212100 16010G20KT P6SM VCTS SCT070CB BKN120
     FM220400 18009KT P6SM -SHRA BKN050
     FM221100 20007KT P6SM VCSH BKN060=

USA.gov is the U.S. government's official web portal to all federal, state and local government web resources and services.